sensor_id;sensor_type;location;lat;lon;timestamp;pressure;altitude;pressure_sealevel;temperature;humidity
66021;BME280;52789;59.980;30.346;2022-08-01T00:02:20;101655.03;;;14.41;85.73
66021;BME280;52789;59.980;30.346;2022-08-01T00:04:46;101648.50;;;14.35;86.05
66021;BME280;52789;59.980;30.346;2022-08-01T00:07:12;101650.84;;;14.30;86.34
66021;BME280;52789;59.980;30.346;2022-08-01T00:09:37;101647.84;;;14.25;86.99
66021;BME280;52789;59.980;30.346;2022-08-01T00:12:03;101653.03;;;14.18;87.55
66021;BME280;52789;59.980;30.346;2022-08-01T00:14:30;101652.47;;;14.15;87.74
66021;BME280;52789;59.980;30.346;2022-08-01T00:16:55;101652.13;;;14.10;87.60
66021;BME280;52789;59.980;30.346;2022-08-01T00:19:21;101646.44;;;14.05;88.21
66021;BME280;52789;59.980;30.346;2022-08-01T00:21:46;101647.44;;;14.04;88.37
66021;BME280;52789;59.980;30.346;2022-08-01T00:24:12;101640.91;;;13.98;88.33
66021;BME280;52789;59.980;30.346;2022-08-01T00:26:38;101601.00;;;13.71;88.33
66021;BME280;52789;59.980;30.346;2022-08-01T00:29:03;101644.41;;;13.90;88.91
66021;BME280;52789;59.980;30.346;2022-08-01T00:31:29;101629.63;;;13.86;88.89
66021;BME280;52789;59.980;30.346;2022-08-01T00:33:54;101651.09;;;13.94;88.93
66021;BME280;52789;59.980;30.346;2022-08-01T00:36:20;101650.44;;;13.92;89.09
66021;BME280;52789;59.980;30.346;2022-08-01T00:38:46;101654.13;;;13.91;89.39
66021;BME280;52789;59.980;30.346;2022-08-01T00:41:11;101654.28;;;13.90;89.50
66021;BME280;52789;59.980;30.346;2022-08-01T00:43:37;101648.94;;;13.90;89.22
66021;BME280;52789;59.980;30.346;2022-08-01T00:46:03;101649.09;;;13.88;89.34
66021;BME280;52789;59.980;30.346;2022-08-01T00:48:28;101649.09;;;13.88;89.45
66021;BME280;52789;59.980;30.346;2022-08-01T00:50:54;101645.03;;;13.84;89.43
66021;BME280;52789;59.980;30.346;2022-08-01T00:53:20;101655.41;;;13.87;89.64
66021;BME280;52789;59.980;30.346;2022-08-01T00:55:46;101647.72;;;13.84;89.68
66021;BME280;52789;59.980;30.346;2022-08-01T00:58:13;101635.31;;;13.75;89.93
66021;BME280;52789;59.980;30.346;2022-08-01T01:00:38;101652.91;;;13.86;89.99
66021;BME280;52789;59.980;30.346;2022-08-01T01:03:04;101653.91;;;13.85;89.98
66021;BME280;52789;59.980;30.346;2022-08-01T01:05:44;101645.19;;;13.75;90.32
66021;BME280;52789;59.980;30.346;2022-08-01T01:08:18;101656.59;;;13.85;90.54
66021;BME280;52789;59.980;30.346;2022-08-01T01:10:57;101656.41;;;13.86;90.74
66021;BME280;52789;59.980;30.346;2022-08-01T01:16:01;101652.22;;;13.84;91.00
66021;BME280;52789;59.980;30.346;2022-08-01T01:18:41;101652.72;;;13.87;91.01
66021;BME280;52789;59.980;30.346;2022-08-01T01:32:01;101641.56;;;13.92;91.33
66021;BME280;52789;59.980;30.346;2022-08-01T01:34:28;101639.72;;;13.92;90.83
66021;BME280;52789;59.980;30.346;2022-08-01T01:36:58;101624.00;;;13.89;90.56
66021;BME280;52789;59.980;30.346;2022-08-01T01:39:26;101629.00;;;13.92;90.96
66021;BME280;52789;59.980;30.346;2022-08-01T01:41:53;101636.06;;;14.02;90.58
66021;BME280;52789;59.980;30.346;2022-08-01T01:44:20;101616.28;;;13.94;90.60
66021;BME280;52789;59.980;30.346;2022-08-01T01:46:47;101622.66;;;14.02;90.33
66021;BME280;52789;59.980;30.346;2022-08-01T01:49:14;101623.34;;;14.04;90.59
66021;BME280;52789;59.980;30.346;2022-08-01T01:51:42;101620.66;;;14.04;90.46
66021;BME280;52789;59.980;30.346;2022-08-01T01:54:09;101620.81;;;14.02;90.40
66021;BME280;52789;59.980;30.346;2022-08-01T01:56:36;101628.38;;;14.07;90.51
66021;BME280;52789;59.980;30.346;2022-08-01T01:59:21;101620.16;;;14.08;90.42
66021;BME280;52789;59.980;30.346;2022-08-01T02:01:51;101619.00;;;14.11;90.57
66021;BME280;52789;59.980;30.346;2022-08-01T02:04:20;101618.66;;;14.14;90.25
66021;BME280;52789;59.980;30.346;2022-08-01T02:06:46;101619.50;;;14.14;90.47
66021;BME280;52789;59.980;30.346;2022-08-01T02:09:16;101610.47;;;14.15;90.33
66021;BME280;52789;59.980;30.346;2022-08-01T02:11:44;101614.13;;;14.14;90.17
66021;BME280;52789;59.980;30.346;2022-08-01T02:14:11;101621.38;;;14.22;90.57
66021;BME280;52789;59.980;30.346;2022-08-01T02:16:40;101622.03;;;14.24;90.27
66021;BME280;52789;59.980;30.346;2022-08-01T02:19:07;101608.81;;;14.31;90.30
66021;BME280;52789;59.980;30.346;2022-08-01T02:21:38;101612.66;;;14.36;90.02
66021;BME280;52789;59.980;30.346;2022-08-01T02:24:14;101610.19;;;14.43;89.75
66021;BME280;52789;59.980;30.346;2022-08-01T02:26:46;101611.38;;;14.48;89.59
66021;BME280;52789;59.980;30.346;2022-08-01T02:29:16;101607.69;;;14.49;89.59
66021;BME280;52789;59.980;30.346;2022-08-01T02:31:44;101607.34;;;14.52;89.28
66021;BME280;52789;59.980;30.346;2022-08-01T02:34:15;101610.69;;;14.63;88.82
66021;BME280;52789;59.980;30.346;2022-08-01T02:36:44;101598.97;;;14.64;88.50
66021;BME280;52789;59.980;30.346;2022-08-01T02:39:13;101611.34;;;14.73;88.81
66021;BME280;52789;59.980;30.346;2022-08-01T02:41:43;101610.19;;;14.75;88.49
66021;BME280;52789;59.980;30.346;2022-08-01T02:44:15;101611.34;;;14.81;88.18
66021;BME280;52789;59.980;30.346;2022-08-01T02:46:50;101620.03;;;14.91;87.71
66021;BME280;52789;59.980;30.346;2022-08-01T02:49:17;101624.06;;;14.95;88.04
66021;BME280;52789;59.980;30.346;2022-08-01T02:51:46;101621.69;;;15.00;87.34
66021;BME280;52789;59.980;30.346;2022-08-01T02:54:15;101607.97;;;14.95;87.39
66021;BME280;52789;59.980;30.346;2022-08-01T02:56:43;101626.06;;;15.09;87.17
66021;BME280;52789;59.980;30.346;2022-08-01T02:59:14;101624.22;;;15.10;86.97
66021;BME280;52789;59.980;30.346;2022-08-01T03:01:42;101629.06;;;15.14;86.89
66021;BME280;52789;59.980;30.346;2022-08-01T03:04:11;101616.16;;;15.10;86.70
66021;BME280;52789;59.980;30.346;2022-08-01T03:06:38;101611.97;;;15.07;87.00
66021;BME280;52789;59.980;30.346;2022-08-01T03:09:05;101618.66;;;15.19;86.99
66021;BME280;52789;59.980;30.346;2022-08-01T03:11:32;101622.31;;;15.27;86.38
66021;BME280;52789;59.980;30.346;2022-08-01T03:14:03;101613.91;;;15.38;86.24
66021;BME280;52789;59.980;30.346;2022-08-01T03:16:31;101617.00;;;15.58;86.02
66021;BME280;52789;59.980;30.346;2022-08-01T03:19:00;101621.25;;;15.91;84.38
66021;BME280;52789;59.980;30.346;2022-08-01T03:21:27;101619.97;;;16.33;82.79
66021;BME280;52789;59.980;30.346;2022-08-01T03:23:56;101616.94;;;17.11;79.27
66021;BME280;52789;59.980;30.346;2022-08-01T03:26:26;101605.91;;;18.22;75.05
66021;BME280;52789;59.980;30.346;2022-08-01T03:29:03;101609.94;;;18.76;71.82
66021;BME280;52789;59.980;30.346;2022-08-01T03:31:37;101618.72;;;18.84;71.79
66021;BME280;52789;59.980;30.346;2022-08-01T03:34:04;101612.22;;;19.07;70.51
66021;BME280;52789;59.980;30.346;2022-08-01T03:36:31;101615.53;;;18.74;71.16
66021;BME280;52789;59.980;30.346;2022-08-01T03:39:02;101604.88;;;18.23;73.24
66021;BME280;52789;59.980;30.346;2022-08-01T03:41:32;101601.59;;;17.71;75.63
66021;BME280;52789;59.980;30.346;2022-08-01T03:44:05;101611.81;;;17.31;76.95
66021;BME280;52789;59.980;30.346;2022-08-01T03:46:36;101621.19;;;17.06;78.56
66021;BME280;52789;59.980;30.346;2022-08-01T03:49:10;101608.38;;;16.78;79.51
66021;BME280;52789;59.980;30.346;2022-08-01T03:51:37;101604.25;;;16.67;79.84
66021;BME280;52789;59.980;30.346;2022-08-01T03:54:04;101610.91;;;16.71;80.24
66021;BME280;52789;59.980;30.346;2022-08-01T03:56:32;101611.69;;;16.80;79.91
66021;BME280;52789;59.980;30.346;2022-08-01T03:59:00;101609.66;;;16.82;80.27
66021;BME280;52789;59.980;30.346;2022-08-01T04:01:28;101609.28;;;16.85;79.37
66021;BME280;52789;59.980;30.346;2022-08-01T04:03:58;101600.94;;;16.80;79.93
66021;BME280;52789;59.980;30.346;2022-08-01T04:06:24;101607.72;;;16.91;80.00
66021;BME280;52789;59.980;30.346;2022-08-01T04:08:50;101604.19;;;17.05;78.94
66021;BME280;52789;59.980;30.346;2022-08-01T04:11:24;101609.31;;;17.15;78.56
66021;BME280;52789;59.980;30.346;2022-08-01T04:13:51;101612.28;;;17.20;78.18
66021;BME280;52789;59.980;30.346;2022-08-01T04:16:18;101614.63;;;17.38;77.89
66021;BME280;52789;59.980;30.346;2022-08-01T04:18:44;101605.03;;;17.79;76.17
66021;BME280;52789;59.980;30.346;2022-08-01T04:21:10;101605.78;;;18.52;74.11
66021;BME280;52789;59.980;30.346;2022-08-01T04:23:37;101595.78;;;19.36;70.67
66021;BME280;52789;59.980;30.346;2022-08-01T04:26:05;101595.22;;;19.95;67.60
66021;BME280;52789;59.980;30.346;2022-08-01T04:28:33;101604.00;;;20.10;67.21
66021;BME280;52789;59.980;30.346;2022-08-01T04:31:00;101608.06;;;19.80;67.37
66021;BME280;52789;59.980;30.346;2022-08-01T04:33:28;101614.00;;;19.21;69.52
66021;BME280;52789;59.980;30.346;2022-08-01T04:35:56;101611.22;;;18.80;71.28
66021;BME280;52789;59.980;30.346;2022-08-01T04:38:25;101574.94;;;18.61;71.65
66021;BME280;52789;59.980;30.346;2022-08-01T04:40:53;101617.09;;;18.90;70.99
66021;BME280;52789;59.980;30.346;2022-08-01T04:43:20;101612.28;;;19.13;70.33
66021;BME280;52789;59.980;30.346;2022-08-01T04:45:47;101605.09;;;19.27;69.57
66021;BME280;52789;59.980;30.346;2022-08-01T04:48:15;101614.03;;;19.28;69.59
66021;BME280;52789;59.980;30.346;2022-08-01T04:50:42;101606.00;;;19.06;70.29
66021;BME280;52789;59.980;30.346;2022-08-01T04:53:15;101612.38;;;18.99;71.16
66021;BME280;52789;59.980;30.346;2022-08-01T04:55:43;101607.50;;;19.09;70.34
66021;BME280;52789;59.980;30.346;2022-08-01T04:58:10;101610.13;;;19.37;69.28
66021;BME280;52789;59.980;30.346;2022-08-01T05:00:36;101615.47;;;19.58;68.72
66021;BME280;52789;59.980;30.346;2022-08-01T05:03:02;101610.28;;;19.63;68.10
66021;BME280;52789;59.980;30.346;2022-08-01T05:05:28;101606.19;;;19.74;67.97
66021;BME280;52789;59.980;30.346;2022-08-01T05:07:53;101609.38;;;19.97;67.22
66021;BME280;52789;59.980;30.346;2022-08-01T05:10:19;101589.16;;;19.93;65.94
66021;BME280;52789;59.980;30.346;2022-08-01T05:12:44;101604.75;;;19.91;66.12
66021;BME280;52789;59.980;30.346;2022-08-01T05:15:11;101608.91;;;19.87;66.54
66021;BME280;52789;59.980;30.346;2022-08-01T05:17:37;101601.41;;;19.76;66.33
66021;BME280;52789;59.980;30.346;2022-08-01T05:20:03;101602.56;;;19.54;67.09
66021;BME280;52789;59.980;30.346;2022-08-01T05:22:28;101593.69;;;19.32;67.71
66021;BME280;52789;59.980;30.346;2022-08-01T05:24:54;101588.66;;;19.22;68.55
66021;BME280;52789;59.980;30.346;2022-08-01T05:27:20;101595.31;;;19.26;68.69
66021;BME280;52789;59.980;30.346;2022-08-01T05:29:46;101586.59;;;19.24;67.91
66021;BME280;52789;59.980;30.346;2022-08-01T05:32:12;101577.81;;;19.15;68.03
66021;BME280;52789;59.980;30.346;2022-08-01T05:34:37;101583.63;;;19.12;68.13
66021;BME280;52789;59.980;30.346;2022-08-01T05:37:03;101582.00;;;19.18;68.00
66021;BME280;52789;59.980;30.346;2022-08-01T05:39:29;101580.38;;;19.30;68.00
66021;BME280;52789;59.980;30.346;2022-08-01T05:41:55;101584.19;;;19.42;67.51
66021;BME280;52789;59.980;30.346;2022-08-01T05:44:20;101580.94;;;19.54;67.84
66021;BME280;52789;59.980;30.346;2022-08-01T05:46:46;101573.88;;;19.59;66.88
66021;BME280;52789;59.980;30.346;2022-08-01T05:49:11;101572.19;;;19.52;66.23
66021;BME280;52789;59.980;30.346;2022-08-01T05:51:37;101574.88;;;19.52;66.52
66021;BME280;52789;59.980;30.346;2022-08-01T05:54:03;101570.75;;;19.56;66.97
66021;BME280;52789;59.980;30.346;2022-08-01T05:56:28;101568.47;;;19.59;66.95
66021;BME280;52789;59.980;30.346;2022-08-01T05:58:57;101569.16;;;19.68;66.13
66021;BME280;52789;59.980;30.346;2022-08-01T06:01:26;101563.34;;;19.71;65.57
66021;BME280;52789;59.980;30.346;2022-08-01T06:03:52;101570.22;;;19.80;65.49
66021;BME280;52789;59.980;30.346;2022-08-01T06:06:20;101567.50;;;19.67;65.53
66021;BME280;52789;59.980;30.346;2022-08-01T06:08:46;101572.06;;;19.66;65.97
66021;BME280;52789;59.980;30.346;2022-08-01T06:11:12;101578.31;;;19.73;66.16
66021;BME280;52789;59.980;30.346;2022-08-01T06:13:37;101561.50;;;19.85;65.46
66021;BME280;52789;59.980;30.346;2022-08-01T06:16:03;101568.78;;;19.84;64.12
66021;BME280;52789;59.980;30.346;2022-08-01T06:18:29;101566.47;;;19.81;65.08
66021;BME280;52789;59.980;30.346;2022-08-01T06:20:55;101565.66;;;19.87;64.62
66021;BME280;52789;59.980;30.346;2022-08-01T06:23:21;101567.75;;;19.85;64.42
66021;BME280;52789;59.980;30.346;2022-08-01T06:25:47;101568.97;;;19.83;64.52
66021;BME280;52789;59.980;30.346;2022-08-01T06:28:13;101564.81;;;19.87;64.49
66021;BME280;52789;59.980;30.346;2022-08-01T06:30:38;101556.34;;;19.96;64.27
66021;BME280;52789;59.980;30.346;2022-08-01T06:33:04;101562.97;;;19.94;64.44
66021;BME280;52789;59.980;30.346;2022-08-01T06:35:30;101560.50;;;20.05;64.52
66021;BME280;52789;59.980;30.346;2022-08-01T06:37:57;101568.22;;;20.15;64.44
66021;BME280;52789;59.980;30.346;2022-08-01T06:40:23;101555.31;;;20.17;64.07
66021;BME280;52789;59.980;30.346;2022-08-01T06:42:49;101565.13;;;20.25;64.29
66021;BME280;52789;59.980;30.346;2022-08-01T06:45:15;101561.34;;;20.19;64.43
66021;BME280;52789;59.980;30.346;2022-08-01T06:47:43;101534.28;;;19.93;65.38
66021;BME280;52789;59.980;30.346;2022-08-01T06:50:10;101572.38;;;20.18;65.99
66021;BME280;52789;59.980;30.346;2022-08-01T06:52:36;101577.78;;;20.18;65.17
66021;BME280;52789;59.980;30.346;2022-08-01T06:55:02;101558.63;;;19.99;65.14
66021;BME280;52789;59.980;30.346;2022-08-01T06:57:28;101580.50;;;20.18;65.26
66021;BME280;52789;59.980;30.346;2022-08-01T06:59:54;101550.13;;;20.16;65.73
66021;BME280;52789;59.980;30.346;2022-08-01T07:02:21;101570.97;;;20.41;65.19
66021;BME280;52789;59.980;30.346;2022-08-01T07:04:46;101567.44;;;20.41;63.97
66021;BME280;52789;59.980;30.346;2022-08-01T07:07:12;101573.88;;;20.40;63.75
66021;BME280;52789;59.980;30.346;2022-08-01T07:09:37;101576.78;;;20.38;63.55
66021;BME280;52789;59.980;30.346;2022-08-01T07:12:06;101567.47;;;20.54;63.99
66021;BME280;52789;59.980;30.346;2022-08-01T07:14:31;101548.31;;;20.56;63.52
66021;BME280;52789;59.980;30.346;2022-08-01T07:16:57;101567.81;;;20.78;63.03
66021;BME280;52789;59.980;30.346;2022-08-01T07:19:22;101557.41;;;20.81;63.15
66021;BME280;52789;59.980;30.346;2022-08-01T07:21:48;101522.84;;;20.77;62.80
66021;BME280;52789;59.980;30.346;2022-08-01T07:24:13;101562.78;;;21.14;61.95
66021;BME280;52789;59.980;30.346;2022-08-01T07:26:44;101554.22;;;21.17;62.78
66021;BME280;52789;59.980;30.346;2022-08-01T07:29:10;101561.31;;;21.18;61.35
66021;BME280;52789;59.980;30.346;2022-08-01T07:31:35;101556.94;;;21.24;62.42
66021;BME280;52789;59.980;30.346;2022-08-01T07:34:01;101561.88;;;21.33;61.89
66021;BME280;52789;59.980;30.346;2022-08-01T07:36:27;101539.41;;;21.26;62.12
66021;BME280;52789;59.980;30.346;2022-08-01T07:38:52;101552.28;;;21.38;61.71
66021;BME280;52789;59.980;30.346;2022-08-01T07:41:18;101550.59;;;21.50;61.20
66021;BME280;52789;59.980;30.346;2022-08-01T07:43:43;101555.59;;;21.46;60.83
66021;BME280;52789;59.980;30.346;2022-08-01T07:46:09;101554.97;;;21.51;60.57
66021;BME280;52789;59.980;30.346;2022-08-01T07:48:34;101556.44;;;21.47;60.19
66021;BME280;52789;59.980;30.346;2022-08-01T07:51:00;101558.53;;;21.45;59.27
66021;BME280;52789;59.980;30.346;2022-08-01T07:53:26;101553.34;;;21.37;59.56
66021;BME280;52789;59.980;30.346;2022-08-01T07:55:51;101557.72;;;21.31;59.53
66021;BME280;52789;59.980;30.346;2022-08-01T07:58:17;101551.09;;;21.27;59.28
66021;BME280;52789;59.980;30.346;2022-08-01T08:00:43;101545.41;;;21.42;59.65
66021;BME280;52789;59.980;30.346;2022-08-01T08:03:09;101550.94;;;21.60;58.35
66021;BME280;52789;59.980;30.346;2022-08-01T08:05:35;101541.59;;;21.56;57.24
66021;BME280;52789;59.980;30.346;2022-08-01T08:08:08;101544.25;;;21.62;57.67
66021;BME280;52789;59.980;30.346;2022-08-01T08:10:34;101542.72;;;21.80;58.37
66021;BME280;52789;59.980;30.346;2022-08-01T08:13:00;101539.06;;;21.99;57.92
66021;BME280;52789;59.980;30.346;2022-08-01T08:15:26;101547.19;;;21.99;58.08
66021;BME280;52789;59.980;30.346;2022-08-01T08:17:52;101545.72;;;21.96;57.81
66021;BME280;52789;59.980;30.346;2022-08-01T08:20:18;101553.84;;;21.96;57.78
66021;BME280;52789;59.980;30.346;2022-08-01T08:22:43;101540.81;;;21.80;57.40
66021;BME280;52789;59.980;30.346;2022-08-01T08:25:09;101536.16;;;21.56;57.80
66021;BME280;52789;59.980;30.346;2022-08-01T08:27:35;101546.31;;;21.67;57.91
66021;BME280;52789;59.980;30.346;2022-08-01T08:30:02;101546.75;;;21.64;57.42
66021;BME280;52789;59.980;30.346;2022-08-01T08:32:30;101552.16;;;21.64;57.98
66021;BME280;52789;59.980;30.346;2022-08-01T08:34:56;101538.28;;;21.47;57.37
66021;BME280;52789;59.980;30.346;2022-08-01T08:37:22;101532.84;;;21.54;58.56
66021;BME280;52789;59.980;30.346;2022-08-01T08:39:47;101545.25;;;21.68;58.16
66021;BME280;52789;59.980;30.346;2022-08-01T08:42:13;101527.34;;;21.67;58.50
66021;BME280;52789;59.980;30.346;2022-08-01T08:44:42;101542.53;;;21.68;59.01
66021;BME280;52789;59.980;30.346;2022-08-01T08:47:11;101540.53;;;21.57;58.55
66021;BME280;52789;59.980;30.346;2022-08-01T08:49:37;101537.66;;;21.52;58.64
66021;BME280;52789;59.980;30.346;2022-08-01T08:52:03;101544.13;;;21.51;58.72
66021;BME280;52789;59.980;30.346;2022-08-01T08:54:30;101529.38;;;21.33;59.22
66021;BME280;52789;59.980;30.346;2022-08-01T08:56:57;101529.78;;;21.37;59.52
66021;BME280;52789;59.980;30.346;2022-08-01T08:59:24;101533.72;;;21.48;59.54
66021;BME280;52789;59.980;30.346;2022-08-01T09:01:50;101527.25;;;21.49;59.96
66021;BME280;52789;59.980;30.346;2022-08-01T09:04:20;101536.41;;;21.48;59.28
66021;BME280;52789;59.980;30.346;2022-08-01T09:06:47;101538.28;;;21.47;59.19
66021;BME280;52789;59.980;30.346;2022-08-01T09:09:13;101528.22;;;21.61;59.61
66021;BME280;52789;59.980;30.346;2022-08-01T09:11:38;101527.09;;;21.75;59.38
66021;BME280;52789;59.980;30.346;2022-08-01T09:14:11;101533.34;;;21.76;59.20
66021;BME280;52789;59.980;30.346;2022-08-01T09:16:43;101529.19;;;21.73;57.73
66021;BME280;52789;59.980;30.346;2022-08-01T09:19:18;101533.56;;;21.74;58.50
66021;BME280;52789;59.980;30.346;2022-08-01T09:22:03;101526.28;;;21.75;59.28
66021;BME280;52789;59.980;30.346;2022-08-01T09:24:30;101527.50;;;21.79;58.08
66021;BME280;52789;59.980;30.346;2022-08-01T09:26:57;101529.19;;;21.73;57.14
66021;BME280;52789;59.980;30.346;2022-08-01T09:29:28;101513.75;;;21.74;57.13
66021;BME280;52789;59.980;30.346;2022-08-01T09:31:55;101520.31;;;21.91;56.48
66021;BME280;52789;59.980;30.346;2022-08-01T09:34:30;101529.34;;;22.16;56.46
66021;BME280;52789;59.980;30.346;2022-08-01T09:37:00;101511.94;;;22.24;55.06
66021;BME280;52789;59.980;30.346;2022-08-01T09:39:34;101512.91;;;22.36;55.37
66021;BME280;52789;59.980;30.346;2022-08-01T09:42:19;101514.50;;;22.44;54.47
66021;BME280;52789;59.980;30.346;2022-08-01T09:44:45;101503.78;;;22.31;53.18
66021;BME280;52789;59.980;30.346;2022-08-01T09:47:12;101504.53;;;22.13;53.47
66021;BME280;52789;59.980;30.346;2022-08-01T09:49:39;101495.25;;;21.95;53.83
66021;BME280;52789;59.980;30.346;2022-08-01T09:52:22;101506.50;;;21.99;54.89
66021;BME280;52789;59.980;30.346;2022-08-01T09:57:19;101504.00;;;21.98;55.81
66021;BME280;52789;59.980;30.346;2022-08-01T09:59:47;101504.38;;;22.08;56.65
66021;BME280;52789;59.980;30.346;2022-08-01T10:02:25;101499.06;;;22.19;55.91
66021;BME280;52789;59.980;30.346;2022-08-01T10:04:52;101494.59;;;22.32;55.46
66021;BME280;52789;59.980;30.346;2022-08-01T10:07:18;101501.97;;;22.43;55.76
66021;BME280;52789;59.980;30.346;2022-08-01T10:09:45;101494.75;;;22.55;55.59
66021;BME280;52789;59.980;30.346;2022-08-01T10:12:13;101499.19;;;22.49;53.96
66021;BME280;52789;59.980;30.346;2022-08-01T10:14:40;101480.94;;;22.38;54.38
66021;BME280;52789;59.980;30.346;2022-08-01T10:17:11;101500.69;;;22.45;54.02
66021;BME280;52789;59.980;30.346;2022-08-01T10:19:39;101497.31;;;22.50;54.67
66021;BME280;52789;59.980;30.346;2022-08-01T10:22:09;101499.34;;;22.54;53.59
66021;BME280;52789;59.980;30.346;2022-08-01T10:24:39;101499.53;;;22.60;53.58
66021;BME280;52789;59.980;30.346;2022-08-01T10:27:09;101493.34;;;22.71;54.21
66021;BME280;52789;59.980;30.346;2022-08-01T10:29:56;101498.91;;;23.01;54.66
66021;BME280;52789;59.980;30.346;2022-08-01T10:32:22;101497.06;;;23.13;53.01
66021;BME280;52789;59.980;30.346;2022-08-01T10:34:49;101497.75;;;23.08;52.53
66021;BME280;52789;59.980;30.346;2022-08-01T10:37:15;101496.88;;;22.96;52.88
66021;BME280;52789;59.980;30.346;2022-08-01T10:39:43;101491.59;;;23.01;53.72
66021;BME280;52789;59.980;30.346;2022-08-01T10:42:10;101493.69;;;22.99;54.35
66021;BME280;52789;59.980;30.346;2022-08-01T10:44:37;101496.09;;;23.26;54.41
66021;BME280;52789;59.980;30.346;2022-08-01T10:47:08;101498.53;;;23.15;53.55
66021;BME280;52789;59.980;30.346;2022-08-01T10:49:39;101496.03;;;23.14;53.94
66021;BME280;52789;59.980;30.346;2022-08-01T10:52:06;101492.94;;;23.10;53.89
66021;BME280;52789;59.980;30.346;2022-08-01T10:54:38;101486.59;;;22.98;54.94
66021;BME280;52789;59.980;30.346;2022-08-01T10:57:04;101481.19;;;22.98;54.79
66021;BME280;52789;59.980;30.346;2022-08-01T10:59:32;101483.06;;;22.98;53.68
66021;BME280;52789;59.980;30.346;2022-08-01T11:02:00;101487.38;;;22.87;54.66
66021;BME280;52789;59.980;30.346;2022-08-01T11:05:07;101485.16;;;22.34;55.18
66021;BME280;52789;59.980;30.346;2022-08-01T11:07:43;101482.84;;;22.13;56.43
66021;BME280;52789;59.980;30.346;2022-08-01T11:10:30;101486.44;;;22.07;53.69
66021;BME280;52789;59.980;30.346;2022-08-01T11:13:00;101484.16;;;22.04;52.77
66021;BME280;52789;59.980;30.346;2022-08-01T11:15:28;101491.06;;;22.00;52.70
66021;BME280;52789;59.980;30.346;2022-08-01T11:17:55;101495.25;;;21.95;53.63
66021;BME280;52789;59.980;30.346;2022-08-01T11:20:34;101486.88;;;21.97;54.39
66021;BME280;52789;59.980;30.346;2022-08-01T11:30:45;101502.28;;;22.10;55.17
66021;BME280;52789;59.980;30.346;2022-08-01T11:33:13;101496.41;;;22.13;55.40
66021;BME280;52789;59.980;30.346;2022-08-01T11:38:37;101505.31;;;22.20;55.90
66021;BME280;52789;59.980;30.346;2022-08-01T11:41:13;101508.59;;;22.04;56.87
66021;BME280;52789;59.980;30.346;2022-08-01T11:47:05;101502.16;;;21.60;59.72
66021;BME280;52789;59.980;30.346;2022-08-01T11:54:43;101510.28;;;21.02;64.90
66021;BME280;52789;59.980;30.346;2022-08-01T11:57:11;101508.41;;;21.02;66.14
66021;BME280;52789;59.980;30.346;2022-08-01T12:02:22;101498.50;;;20.77;69.68
66021;BME280;52789;59.980;30.346;2022-08-01T12:04:51;101501.84;;;20.52;71.15
66021;BME280;52789;59.980;30.346;2022-08-01T12:07:18;101504.16;;;20.42;72.38
66021;BME280;52789;59.980;30.346;2022-08-01T12:09:46;101496.03;;;20.35;72.16
66021;BME280;52789;59.980;30.346;2022-08-01T12:12:15;101501.47;;;20.42;72.58
66021;BME280;52789;59.980;30.346;2022-08-01T12:14:43;101495.81;;;20.50;72.20
66021;BME280;52789;59.980;30.346;2022-08-01T12:17:08;101495.44;;;20.53;70.42
66021;BME280;52789;59.980;30.346;2022-08-01T12:19:34;101476.06;;;20.43;71.17
66021;BME280;52789;59.980;30.346;2022-08-01T12:22:13;101479.19;;;20.33;71.10
66021;BME280;52789;59.980;30.346;2022-08-01T12:24:41;101495.00;;;20.43;72.21
66021;BME280;52789;59.980;30.346;2022-08-01T12:27:08;101492.31;;;20.43;72.18
66021;BME280;52789;59.980;30.346;2022-08-01T12:29:42;101488.56;;;20.44;72.22
66021;BME280;52789;59.980;30.346;2022-08-01T12:32:42;101490.84;;;20.40;69.64
66021;BME280;52789;59.980;30.346;2022-08-01T12:35:16;101492.06;;;20.18;69.68
66021;BME280;52789;59.980;30.346;2022-08-01T12:37:48;101486.06;;;19.96;70.89
66021;BME280;52789;59.980;30.346;2022-08-01T12:42:48;101470.00;;;19.75;71.88
66021;BME280;52789;59.980;30.346;2022-08-01T12:45:18;101472.50;;;19.83;72.65
66021;BME280;52789;59.980;30.346;2022-08-01T12:47:46;101479.56;;;19.84;71.77
66021;BME280;52789;59.980;30.346;2022-08-01T12:54:04;101462.47;;;19.57;73.15
66021;BME280;52789;59.980;30.346;2022-08-01T12:56:33;101480.31;;;19.52;74.13
66021;BME280;52789;59.980;30.346;2022-08-01T12:59:19;101473.38;;;19.29;74.46
66021;BME280;52789;59.980;30.346;2022-08-01T13:01:48;101491.03;;;19.25;76.94
66021;BME280;52789;59.980;30.346;2022-08-01T13:04:17;101466.84;;;19.04;78.08
66021;BME280;52789;59.980;30.346;2022-08-01T13:06:46;101473.06;;;19.04;78.73
66021;BME280;52789;59.980;30.346;2022-08-01T13:09:17;101462.22;;;18.84;79.61
66021;BME280;52789;59.980;30.346;2022-08-01T13:11:43;101477.16;;;18.87;81.43
66021;BME280;52789;59.980;30.346;2022-08-01T13:14:26;101470.91;;;18.80;81.86
66021;BME280;52789;59.980;30.346;2022-08-01T13:16:52;101467.59;;;18.84;83.12
66021;BME280;52789;59.980;30.346;2022-08-01T13:19:18;101473.84;;;18.85;81.81
66021;BME280;52789;59.980;30.346;2022-08-01T13:21:55;101477.13;;;18.80;81.23
66021;BME280;52789;59.980;30.346;2022-08-01T13:24:28;101472.47;;;18.68;79.67
66021;BME280;52789;59.980;30.346;2022-08-01T13:26:59;101461.16;;;18.51;77.61
66021;BME280;52789;59.980;30.346;2022-08-01T13:29:34;101467.75;;;18.48;78.72
66021;BME280;52789;59.980;30.346;2022-08-01T13:32:13;101469.38;;;18.43;80.80